Ye Chi — VRFV6 — position and weather

sailwx.info

Track history (hours):
 
Tides and Currents Weather Stations Pressure Air Temp Water Temp Dewpoint Dewpoint Depression Visibility Wind Speed Wind Dir Waves Ship Positions

Ye Chi

Last reported at 2016-Jun-19 17:04 UTC. Time now 2016-Jun-27 06:00 UTC.
Position N 01°16' E 104°13'.

Length 187 m; draft 9.9 m.

Type: Ship (hazmat cat D). MMSI: 477621300.

Date/timePositionNaut miles runAvg speedWind from/ knotsBaromVisibWave heightAir tempDewpointWater temp
2016-Jun-19 17:04N 01°16' E 104°13'814.6
2016-Jun-19 16:32N 01°15' E 104°05'1313.6
2016-Jun-19 15:33N 01°11' E 103°52'18 7.4
2016-Jun-19 13:05N 01°13' E 103°34'1 0.0
2016-Jun-18 20:12N 01°14' E 103°35'3 3.6
2016-Jun-18 19:16N 01°12' E 103°37'5 7.2
2016-Jun-18 18:33N 01°15' E 103°42'0 0.0
2016-Jun-17 05:31N 01°15' E 103°42'2 2.0
2016-Jun-17 04:33N 01°15' E 103°44'5 4.6
2016-Jun-17 03:33N 01°14' E 103°48'0 0.0
2016-Jun-17 02:29N 01°14' E 103°48'0 0.0
2016-Jun-17 01:29N 01°14' E 103°48'0 0.1
2016-Jun-17 00:29N 01°14' E 103°48'0 0.1
2016-Jun-16 23:32N 01°14' E 103°48'0 0.1
2016-Jun-16 22:32N 01°14' E 103°48'0 0.1
2016-Jun-16 21:32N 01°13' E 103°48'2 2.1
2016-Jun-16 20:33N 01°15' E 103°46'10 9.9
2016-Jun-16 19:33N 01°12' E 103°36'2 0.1
2016-Jun-15 23:24N 01°15' E 103°35'3 3.6
2016-Jun-15 22:32N 01°12' E 103°37'5 5.5
2016-Jun-15 21:33N 01°15' E 103°42'1 0.0
2016-Jun-14 11:33N 01°16' E 103°41'6 6.1
2016-Jun-14 10:33N 01°14' E 103°47'1 1.4
2016-Jun-14 09:31N 01°14' E 103°48'0 0.1
2016-Jun-14 08:33N 01°14' E 103°48'0 0.2
2016-Jun-14 07:33N 01°14' E 103°49'0 0.0
2016-Jun-14 05:33N 01°14' E 103°49'0 0.0
2016-Jun-14 04:33N 01°14' E 103°49'3 3.1
2016-Jun-14 03:30N 01°13' E 103°52'8 8.7
2016-Jun-14 02:34N 01°16' E 103°59'3 3.2
2016-Jun-14 01:33N 01°16' E 104°03'  
2016-Jun-11 09:33N 01°16' E 104°13'1312.7
2016-Jun-11 08:33N 01°15' E 104°00'1212.2
2016-Jun-11 07:33N 01°11' E 103°49'1 1.1
2016-Jun-11 06:33N 01°12' E 103°48'0 0.0
2016-Jun-10 07:13N 01°12' E 103°48'1 1.3
2016-Jun-10 06:33N 01°13' E 103°48'1 0.9
2016-Jun-10 05:31N 01°14' E 103°48'0 0.0
2016-Jun-10 04:31N 01°14' E 103°48'0 0.0
2016-Jun-10 03:22N 01°14' E 103°48'0 0.0
2016-Jun-10 02:31N 01°13' E 103°48'0 0.0
2016-Jun-10 01:25N 01°13' E 103°48'0 0.0
2016-Jun-10 00:25N 01°13' E 103°48'0 0.0
2016-Jun-09 23:22N 01°13' E 103°48'0 0.0
2016-Jun-09 22:31N 01°13' E 103°48'0 0.0
2016-Jun-09 21:22N 01°13' E 103°48'0 0.0
2016-Jun-09 20:10N 01°13' E 103°48'0 0.0
2016-Jun-09 19:19N 01°13' E 103°48'0 0.1
2016-Jun-09 18:31N 01°14' E 103°48'0 0.1
2016-Jun-09 17:31N 01°14' E 103°48'  
Track history (hours):
 
Tides and Currents Weather Stations Pressure Air Temp Water Temp Dewpoint Dewpoint Depression Visibility Wind Speed Wind Dir Waves Ship Positions

Ye Chi

Last reported at 2016-Jun-19 17:04 UTC. Time now 2016-Jun-27 06:00 UTC.
Position N 01°16' E 104°13'.

Length 187 m; draft 9.9 m.

Type: Ship (hazmat cat D). MMSI: 477621300.

Date/timePositionNaut miles runAvg speedWind from/ knotsBaromVisibWave heightAir tempDewpointWater temp
2016-Jun-19 17:04N 01°16' E 104°13'814.6
2016-Jun-19 16:32N 01°15' E 104°05'1313.6
2016-Jun-19 15:33N 01°11' E 103°52'18 7.4
2016-Jun-19 13:05N 01°13' E 103°34'1 0.0
2016-Jun-18 20:12N 01°14' E 103°35'3 3.6
2016-Jun-18 19:16N 01°12' E 103°37'5 7.2
2016-Jun-18 18:33N 01°15' E 103°42'0 0.0
2016-Jun-17 05:31N 01°15' E 103°42'2 2.0
2016-Jun-17 04:33N 01°15' E 103°44'5 4.6
2016-Jun-17 03:33N 01°14' E 103°48'0 0.0
2016-Jun-17 02:29N 01°14' E 103°48'0 0.0
2016-Jun-17 01:29N 01°14' E 103°48'0 0.1
2016-Jun-17 00:29N 01°14' E 103°48'0 0.1
2016-Jun-16 23:32N 01°14' E 103°48'0 0.1
2016-Jun-16 22:32N 01°14' E 103°48'0 0.1
2016-Jun-16 21:32N 01°13' E 103°48'2 2.1
2016-Jun-16 20:33N 01°15' E 103°46'10 9.9
2016-Jun-16 19:33N 01°12' E 103°36'2 0.1
2016-Jun-15 23:24N 01°15' E 103°35'3 3.6
2016-Jun-15 22:32N 01°12' E 103°37'5 5.5
2016-Jun-15 21:33N 01°15' E 103°42'1 0.0
2016-Jun-14 11:33N 01°16' E 103°41'6 6.1
2016-Jun-14 10:33N 01°14' E 103°47'1 1.4
2016-Jun-14 09:31N 01°14' E 103°48'0 0.1
2016-Jun-14 08:33N 01°14' E 103°48'0 0.2
2016-Jun-14 07:33N 01°14' E 103°49'0 0.0
2016-Jun-14 05:33N 01°14' E 103°49'0 0.0
2016-Jun-14 04:33N 01°14' E 103°49'3 3.1
2016-Jun-14 03:30N 01°13' E 103°52'8 8.7
2016-Jun-14 02:34N 01°16' E 103°59'3 3.2
2016-Jun-14 01:33N 01°16' E 104°03'  
2016-Jun-11 09:33N 01°16' E 104°13'1312.7
2016-Jun-11 08:33N 01°15' E 104°00'1212.2
2016-Jun-11 07:33N 01°11' E 103°49'1 1.1
2016-Jun-11 06:33N 01°12' E 103°48'0 0.0
2016-Jun-10 07:13N 01°12' E 103°48'1 1.3
2016-Jun-10 06:33N 01°13' E 103°48'1 0.9
2016-Jun-10 05:31N 01°14' E 103°48'0 0.0
2016-Jun-10 04:31N 01°14' E 103°48'0 0.0
2016-Jun-10 03:22N 01°14' E 103°48'0 0.0
2016-Jun-10 02:31N 01°13' E 103°48'0 0.0
2016-Jun-10 01:25N 01°13' E 103°48'0 0.0
2016-Jun-10 00:25N 01°13' E 103°48'0 0.0
2016-Jun-09 23:22N 01°13' E 103°48'0 0.0
2016-Jun-09 22:31N 01°13' E 103°48'0 0.0
2016-Jun-09 21:22N 01°13' E 103°48'0 0.0
2016-Jun-09 20:10N 01°13' E 103°48'0 0.0
2016-Jun-09 19:19N 01°13' E 103°48'0 0.1
2016-Jun-09 18:31N 01°14' E 103°48'0 0.1
2016-Jun-09 17:31N 01°14' E 103°48'  

Dump ship's entire track history